Liberty Township, Ohio
Current Conditions -  °F | °C
As of 3:53 AM on Friday 28 Nov 2014 (Local Time) from KMGY Reporting Station
Scattered Clouds Scattered Clouds  
Wind Chill: 23°   Ceiling: Unl
Heat Index: 23°   Visibility: 10mi
Dew Point: 15°   Wind: 3mph
Humidity: 72%   Direction: 320°NW
Pressure: 30.36"   Gusts: NA
Location:  39.4452°N, 84.2185°W
Report Text: KMGY 280853Z AUTO 32003KT 10SM SCT040 M05/M09 A3036 RMK AO2 SLP292 T10501094 55000
Loading
Personal Weather Stations






























Interactive Weather Map New forecast layout! Learn more

10-Day Weather Forecast

Advertisements
Track Severe Weather on mobile